CheckWX is a tool to help pilots better visualize weather data.  It is not intended as a substitute for an official pre-flight weather briefing.

05:20:20 UTC

ESOW METAR
Stockholm Västerås Airport
Stockholm / Västerås, Sweden
Current

30 mins ago

ESOW 200450Z AUTO 33014KT 9999 NCD 02/M09 Q1002
Observed
Feb-20 @ 04:50 UTC
Wind
  • 330° at 14 KTS
Visibility
10,000+ meters
Flight Rules
VFR
Cloud Levels
  • Clear skies
Temperature
C / 36°F
Dewpoint
-9°C / 16°F
Humidity
44%
Altimeter
29.59" Hg
Pressure
1001.92 hPa
Previous

60 mins ago

ESOW 200420Z AUTO 33018KT 9999 NCD 02/M08 Q1002
Observed
Feb-20 @ 04:20 UTC
Wind
  • 330° at 18 KTS
Visibility
10,000+ meters
Flight Rules
VFR
Cloud Levels
  • Clear skies
Temperature
C / 36°F
Dewpoint
-8°C / 18°F
Humidity
48%
Altimeter
29.59" Hg
Pressure
1001.92 hPa
Previous

2 hours ago

ESOW 200350Z AUTO 33014G24KT 9999 NCD 03/M06 Q1001
Observed
Feb-20 @ 03:50 UTC
Wind
  • 330° at 14 KTS
  • Gusting to 24 KTS
Visibility
10,000+ meters
Flight Rules
VFR
Cloud Levels
  • Clear skies
Temperature
C / 37°F
Dewpoint
-6°C / 21°F
Humidity
52%
Altimeter
29.56" Hg
Pressure
1000.92 hPa